sensor_id;sensor_type;location;lat;lon;timestamp;temperature;humidity
11025;DHT22;22890;51.820;8.682;2023-05-07T00:07:03;14.40;99.90
11025;DHT22;22890;51.820;8.682;2023-05-07T00:29:07;14.40;99.90
11025;DHT22;22890;51.820;8.682;2023-05-07T00:38:57;14.40;99.90
11025;DHT22;22890;51.820;8.682;2023-05-07T00:43:52;14.40;99.90
11025;DHT22;22890;51.820;8.682;2023-05-07T00:46:20;14.40;99.90
11025;DHT22;22890;51.820;8.682;2023-05-07T00:53:42;14.40;99.90
11025;DHT22;22890;51.820;8.682;2023-05-07T00:56:09;14.40;99.90
11025;DHT22;22890;51.820;8.682;2023-05-07T01:05:59;14.40;99.90
11025;DHT22;22890;51.820;8.682;2023-05-07T01:08:26;14.30;99.90
11025;DHT22;22890;51.820;8.682;2023-05-07T01:10:56;16.10;99.90
11025;DHT22;22890;51.820;8.682;2023-05-07T01:13:24;14.30;99.90
11025;DHT22;22890;51.820;8.682;2023-05-07T01:15:51;14.30;99.90
11025;DHT22;22890;51.820;8.682;2023-05-07T01:25:40;14.30;99.90
11025;DHT22;22890;51.820;8.682;2023-05-07T01:30:39;12.60;99.90
11025;DHT22;22890;51.820;8.682;2023-05-07T01:33:10;14.20;99.90
11025;DHT22;22890;51.820;8.682;2023-05-07T01:35:41;14.20;99.90
11025;DHT22;22890;51.820;8.682;2023-05-07T01:38:10;14.20;99.90
11025;DHT22;22890;51.820;8.682;2023-05-07T01:43:05;14.20;99.90
11025;DHT22;22890;51.820;8.682;2023-05-07T01:45:34;14.20;99.90
11025;DHT22;22890;51.820;8.682;2023-05-07T01:48:02;14.20;99.90
11025;DHT22;22890;51.820;8.682;2023-05-07T01:50:30;14.20;99.90
11025;DHT22;22890;51.820;8.682;2023-05-07T02:02:46;14.10;99.90
11025;DHT22;22890;51.820;8.682;2023-05-07T02:18:06;14.00;99.90
11025;DHT22;22890;51.820;8.682;2023-05-07T02:20:33;13.90;99.90
11025;DHT22;22890;51.820;8.682;2023-05-07T02:27:57;13.80;99.90
11025;DHT22;22890;51.820;8.682;2023-05-07T03:00:14;13.40;99.90
11025;DHT22;22890;51.820;8.682;2023-05-07T03:17:39;13.30;99.90
11025;DHT22;22890;51.820;8.682;2023-05-07T03:20:06;13.20;99.90
11025;DHT22;22890;51.820;8.682;2023-05-07T03:37:17;13.10;99.90
11025;DHT22;22890;51.820;8.682;2023-05-07T04:28:58;13.00;99.90
11025;DHT22;22890;51.820;8.682;2023-05-07T04:41:26;12.90;99.90
11025;DHT22;22890;51.820;8.682;2023-05-07T04:46:23;13.00;99.90
11025;DHT22;22890;51.820;8.682;2023-05-07T04:48:51;13.00;99.90
11025;DHT22;22890;51.820;8.682;2023-05-07T04:53:45;12.90;99.90
11025;DHT22;22890;51.820;8.682;2023-05-07T05:25:57;13.00;99.90
11025;DHT22;22890;51.820;8.682;2023-05-07T05:35:50;13.00;99.90
11025;DHT22;22890;51.820;8.682;2023-05-07T05:53:03;13.00;99.90
11025;DHT22;22890;51.820;8.682;2023-05-07T05:58:00;13.10;99.90
11025;DHT22;22890;51.820;8.682;2023-05-07T06:05:29;13.20;99.90
11025;DHT22;22890;51.820;8.682;2023-05-07T06:30:09;13.10;99.90
11025;DHT22;22890;51.820;8.682;2023-05-07T06:40:06;13.30;99.90
11025;DHT22;22890;51.820;8.682;2023-05-07T06:55:25;13.40;99.90
11025;DHT22;22890;51.820;8.682;2023-05-07T07:02:53;13.50;99.90
11025;DHT22;22890;51.820;8.682;2023-05-07T07:10:21;13.60;99.90
11025;DHT22;22890;51.820;8.682;2023-05-07T07:15:20;13.60;99.90
11025;DHT22;22890;51.820;8.682;2023-05-07T07:32:37;13.70;99.90
11025;DHT22;22890;51.820;8.682;2023-05-07T07:40:00;14.00;99.90
11025;DHT22;22890;51.820;8.682;2023-05-07T07:42:26;14.00;99.90
11025;DHT22;22890;51.820;8.682;2023-05-07T07:52:18;14.30;99.90
11025;DHT22;22890;51.820;8.682;2023-05-07T07:57:12;14.20;99.90
11025;DHT22;22890;51.820;8.682;2023-05-07T08:12:04;14.50;99.90
11025;DHT22;22890;51.820;8.682;2023-05-07T08:14:34;14.50;99.90
11025;DHT22;22890;51.820;8.682;2023-05-07T08:39:17;15.30;99.90
11025;DHT22;22890;51.820;8.682;2023-05-07T08:41:48;15.30;99.90
11025;DHT22;22890;51.820;8.682;2023-05-07T08:44:21;15.30;99.90
11025;DHT22;22890;51.820;8.682;2023-05-07T08:46:50;15.40;99.90
11025;DHT22;22890;51.820;8.682;2023-05-07T08:51:48;15.40;99.90
11025;DHT22;22890;51.820;8.682;2023-05-07T08:54:16;15.60;99.90
11025;DHT22;22890;51.820;8.682;2023-05-07T09:06:34;15.70;99.90
11025;DHT22;22890;51.820;8.682;2023-05-07T09:26:34;16.00;99.90
11025;DHT22;22890;51.820;8.682;2023-05-07T09:33:57;16.10;99.90
11025;DHT22;22890;51.820;8.682;2023-05-07T09:46:31;16.30;99.90
11025;DHT22;22890;51.820;8.682;2023-05-07T09:51:41;16.40;99.90
11025;DHT22;22890;51.820;8.682;2023-05-07T09:54:10;16.40;99.90
11025;DHT22;22890;51.820;8.682;2023-05-07T09:59:13;16.50;99.90
11025;DHT22;22890;51.820;8.682;2023-05-07T10:01:41;16.50;99.90
11025;DHT22;22890;51.820;8.682;2023-05-07T10:04:10;16.40;99.90
11025;DHT22;22890;51.820;8.682;2023-05-07T10:06:38;16.40;99.90
11025;DHT22;22890;51.820;8.682;2023-05-07T10:11:35;16.50;99.90
11025;DHT22;22890;51.820;8.682;2023-05-07T10:14:03;16.60;99.90
11025;DHT22;22890;51.820;8.682;2023-05-07T10:16:35;16.60;99.90
11025;DHT22;22890;51.820;8.682;2023-05-07T10:19:08;16.70;99.90
11025;DHT22;22890;51.820;8.682;2023-05-07T10:21:37;16.70;99.90
11025;DHT22;22890;51.820;8.682;2023-05-07T10:24:09;16.70;99.90
11025;DHT22;22890;51.820;8.682;2023-05-07T10:26:47;16.60;99.90
11025;DHT22;22890;51.820;8.682;2023-05-07T10:32:08;16.70;99.90
11025;DHT22;22890;51.820;8.682;2023-05-07T10:34:43;16.70;99.90
11025;DHT22;22890;51.820;8.682;2023-05-07T10:37:12;16.70;99.90
11025;DHT22;22890;51.820;8.682;2023-05-07T10:39:40;16.80;99.90
11025;DHT22;22890;51.820;8.682;2023-05-07T10:42:09;16.80;99.90
11025;DHT22;22890;51.820;8.682;2023-05-07T10:47:12;16.90;99.90
11025;DHT22;22890;51.820;8.682;2023-05-07T10:52:23;17.00;99.90
11025;DHT22;22890;51.820;8.682;2023-05-07T11:04:14;16.90;99.90
11025;DHT22;22890;51.820;8.682;2023-05-07T11:15:10;17.00;99.90
11025;DHT22;22890;51.820;8.682;2023-05-07T11:17:58;17.00;99.90
11025;DHT22;22890;51.820;8.682;2023-05-07T11:20:52;17.10;99.90
11025;DHT22;22890;51.820;8.682;2023-05-07T11:28:43;17.40;99.90
11025;DHT22;22890;51.820;8.682;2023-05-07T11:31:10;17.40;99.90
11025;DHT22;22890;51.820;8.682;2023-05-07T11:43:37;17.60;99.90
11025;DHT22;22890;51.820;8.682;2023-05-07T11:46:11;17.60;99.90
11025;DHT22;22890;51.820;8.682;2023-05-07T11:48:38;17.70;99.90
11025;DHT22;22890;51.820;8.682;2023-05-07T11:51:06;17.80;99.90
11025;DHT22;22890;51.820;8.682;2023-05-07T11:53:39;17.90;99.90
11025;DHT22;22890;51.820;8.682;2023-05-07T11:56:11;18.00;99.90
11025;DHT22;22890;51.820;8.682;2023-05-07T12:01:07;18.20;99.90
11025;DHT22;22890;51.820;8.682;2023-05-07T12:03:36;18.30;99.90
11025;DHT22;22890;51.820;8.682;2023-05-07T12:06:09;18.30;99.90
11025;DHT22;22890;51.820;8.682;2023-05-07T12:08:38;18.30;99.90
11025;DHT22;22890;51.820;8.682;2023-05-07T12:11:11;18.20;99.90
11025;DHT22;22890;51.820;8.682;2023-05-07T12:16:06;18.20;99.90
11025;DHT22;22890;51.820;8.682;2023-05-07T12:18:35;18.20;99.90
11025;DHT22;22890;51.820;8.682;2023-05-07T12:23:29;18.20;99.90
11025;DHT22;22890;51.820;8.682;2023-05-07T12:28:23;18.10;99.90
11025;DHT22;22890;51.820;8.682;2023-05-07T12:30:51;18.20;99.90
11025;DHT22;22890;51.820;8.682;2023-05-07T12:33:23;18.40;99.90
11025;DHT22;22890;51.820;8.682;2023-05-07T12:38:17;18.50;99.90
11025;DHT22;22890;51.820;8.682;2023-05-07T12:40:46;18.40;99.90
11025;DHT22;22890;51.820;8.682;2023-05-07T12:43:18;18.50;99.90
11025;DHT22;22890;51.820;8.682;2023-05-07T12:45:47;18.50;99.90
11025;DHT22;22890;51.820;8.682;2023-05-07T12:48:14;18.50;99.90
11025;DHT22;22890;51.820;8.682;2023-05-07T12:53:10;18.60;99.90
11025;DHT22;22890;51.820;8.682;2023-05-07T12:55:43;18.60;99.90
11025;DHT22;22890;51.820;8.682;2023-05-07T12:58:18;18.60;99.90
11025;DHT22;22890;51.820;8.682;2023-05-07T13:00:48;18.50;99.90
11025;DHT22;22890;51.820;8.682;2023-05-07T13:03:26;18.60;99.90
11025;DHT22;22890;51.820;8.682;2023-05-07T13:05:55;18.60;99.90
11025;DHT22;22890;51.820;8.682;2023-05-07T13:08:47;18.50;99.90
11025;DHT22;22890;51.820;8.682;2023-05-07T13:11:13;18.40;99.90
11025;DHT22;22890;51.820;8.682;2023-05-07T13:16:10;18.30;99.90
11025;DHT22;22890;51.820;8.682;2023-05-07T13:18:39;18.40;99.90
11025;DHT22;22890;51.820;8.682;2023-05-07T13:28:40;18.40;99.90
11025;DHT22;22890;51.820;8.682;2023-05-07T13:33:34;18.40;99.90
11025;DHT22;22890;51.820;8.682;2023-05-07T13:36:02;18.30;99.90
11025;DHT22;22890;51.820;8.682;2023-05-07T13:40:58;18.20;99.90
11025;DHT22;22890;51.820;8.682;2023-05-07T13:45:52;18.20;99.90
11025;DHT22;22890;51.820;8.682;2023-05-07T13:53:13;18.30;99.90
11025;DHT22;22890;51.820;8.682;2023-05-07T13:58:06;18.30;99.90
11025;DHT22;22890;51.820;8.682;2023-05-07T14:03:01;18.40;99.90
11025;DHT22;22890;51.820;8.682;2023-05-07T14:07:57;18.40;99.90
11025;DHT22;22890;51.820;8.682;2023-05-07T14:15:19;18.30;99.90
11025;DHT22;22890;51.820;8.682;2023-05-07T14:22:41;18.30;99.90
11025;DHT22;22890;51.820;8.682;2023-05-07T14:25:07;18.30;99.90
11025;DHT22;22890;51.820;8.682;2023-05-07T14:39:51;18.40;99.90
11025;DHT22;22890;51.820;8.682;2023-05-07T14:42:18;18.40;99.90
11025;DHT22;22890;51.820;8.682;2023-05-07T14:44:46;18.40;99.90
11025;DHT22;22890;51.820;8.682;2023-05-07T14:49:45;18.40;99.90
11025;DHT22;22890;51.820;8.682;2023-05-07T14:52:12;18.40;99.90
11025;DHT22;22890;51.820;8.682;2023-05-07T14:57:07;18.30;99.90
11025;DHT22;22890;51.820;8.682;2023-05-07T15:02:01;18.40;99.90
11025;DHT22;22890;51.820;8.682;2023-05-07T15:04:32;18.30;99.90
11025;DHT22;22890;51.820;8.682;2023-05-07T15:09:26;18.30;99.90
11025;DHT22;22890;51.820;8.682;2023-05-07T15:11:53;18.20;99.90
11025;DHT22;22890;51.820;8.682;2023-05-07T15:16:48;18.30;99.90
11025;DHT22;22890;51.820;8.682;2023-05-07T15:21:43;18.30;99.90
11025;DHT22;22890;51.820;8.682;2023-05-07T15:24:10;18.30;99.90
11025;DHT22;22890;51.820;8.682;2023-05-07T15:26:37;18.20;99.90
11025;DHT22;22890;51.820;8.682;2023-05-07T15:29:03;18.10;99.90
11025;DHT22;22890;51.820;8.682;2023-05-07T15:34:03;18.20;99.90
11025;DHT22;22890;51.820;8.682;2023-05-07T15:41:24;18.30;99.90
11025;DHT22;22890;51.820;8.682;2023-05-07T15:43:52;18.30;99.90
11025;DHT22;22890;51.820;8.682;2023-05-07T15:46:20;18.20;99.90
11025;DHT22;22890;51.820;8.682;2023-05-07T15:53:41;18.10;99.90
11025;DHT22;22890;51.820;8.682;2023-05-07T15:58:35;18.00;99.90
11025;DHT22;22890;51.820;8.682;2023-05-07T16:01:03;18.00;99.90
11025;DHT22;22890;51.820;8.682;2023-05-07T16:03:31;18.00;99.90
11025;DHT22;22890;51.820;8.682;2023-05-07T16:05:58;18.00;99.90
11025;DHT22;22890;51.820;8.682;2023-05-07T16:15:55;18.00;99.90
11025;DHT22;22890;51.820;8.682;2023-05-07T16:18:23;18.00;99.90
11025;DHT22;22890;51.820;8.682;2023-05-07T16:23:17;17.10;99.90
11025;DHT22;22890;51.820;8.682;2023-05-07T16:28:13;18.00;99.90
11025;DHT22;22890;51.820;8.682;2023-05-07T16:30:39;17.90;99.90
11025;DHT22;22890;51.820;8.682;2023-05-07T16:33:06;18.00;99.90
11025;DHT22;22890;51.820;8.682;2023-05-07T16:35:33;18.00;99.90
11025;DHT22;22890;51.820;8.682;2023-05-07T16:45:21;17.80;99.90
11025;DHT22;22890;51.820;8.682;2023-05-07T16:47:48;17.90;99.90
11025;DHT22;22890;51.820;8.682;2023-05-07T16:50:15;17.80;99.90
11025;DHT22;22890;51.820;8.682;2023-05-07T17:10:01;17.60;99.90
11025;DHT22;22890;51.820;8.682;2023-05-07T17:12:28;17.50;99.90
11025;DHT22;22890;51.820;8.682;2023-05-07T17:22:17;17.30;99.90
11025;DHT22;22890;51.820;8.682;2023-05-07T17:24:44;17.30;99.90
11025;DHT22;22890;51.820;8.682;2023-05-07T17:34:34;17.10;99.90
11025;DHT22;22890;51.820;8.682;2023-05-07T17:37:01;17.10;99.90
11025;DHT22;22890;51.820;8.682;2023-05-07T17:39:28;17.10;99.90
11025;DHT22;22890;51.820;8.682;2023-05-07T17:44:21;17.00;99.90
11025;DHT22;22890;51.820;8.682;2023-05-07T17:46:48;17.00;99.90
11025;DHT22;22890;51.820;8.682;2023-05-07T17:51:42;16.90;99.90
11025;DHT22;22890;51.820;8.682;2023-05-07T18:11:34;16.30;99.90
11025;DHT22;22890;51.820;8.682;2023-05-07T18:14:02;16.20;99.90
11025;DHT22;22890;51.820;8.682;2023-05-07T18:28:45;15.80;99.90
11025;DHT22;22890;51.820;8.682;2023-05-07T18:36:06;15.80;99.90
11025;DHT22;22890;51.820;8.682;2023-05-07T18:38:32;15.70;99.90
11025;DHT22;22890;51.820;8.682;2023-05-07T18:41:03;15.70;99.90
11025;DHT22;22890;51.820;8.682;2023-05-07T18:45:58;15.60;99.90
11025;DHT22;22890;51.820;8.682;2023-05-07T18:50:52;15.50;99.90
11025;DHT22;22890;51.820;8.682;2023-05-07T18:53:19;15.40;99.90
11025;DHT22;22890;51.820;8.682;2023-05-07T18:55:50;15.40;99.90
11025;DHT22;22890;51.820;8.682;2023-05-07T18:58:17;15.30;99.90
11025;DHT22;22890;51.820;8.682;2023-05-07T19:00:46;15.30;99.90
11025;DHT22;22890;51.820;8.682;2023-05-07T19:05:42;15.10;99.90
11025;DHT22;22890;51.820;8.682;2023-05-07T19:10:36;15.10;99.90
11025;DHT22;22890;51.820;8.682;2023-05-07T19:15:29;15.10;99.90
11025;DHT22;22890;51.820;8.682;2023-05-07T19:27:45;14.80;99.90
11025;DHT22;22890;51.820;8.682;2023-05-07T19:30:13;14.70;99.90
11025;DHT22;22890;51.820;8.682;2023-05-07T19:35:07;14.70;99.90
11025;DHT22;22890;51.820;8.682;2023-05-07T19:42:31;14.40;99.90
11025;DHT22;22890;51.820;8.682;2023-05-07T19:49:52;14.20;99.90
11025;DHT22;22890;51.820;8.682;2023-05-07T19:57:13;14.10;99.90
11025;DHT22;22890;51.820;8.682;2023-05-07T19:59:42;14.10;99.90
11025;DHT22;22890;51.820;8.682;2023-05-07T20:02:09;14.10;99.90
11025;DHT22;22890;51.820;8.682;2023-05-07T20:07:04;13.90;99.90
11025;DHT22;22890;51.820;8.682;2023-05-07T20:09:31;13.90;99.90
11025;DHT22;22890;51.820;8.682;2023-05-07T20:14:25;13.90;99.90
11025;DHT22;22890;51.820;8.682;2023-05-07T20:26:42;13.60;99.90
11025;DHT22;22890;51.820;8.682;2023-05-07T20:31:36;13.60;99.90
11025;DHT22;22890;51.820;8.682;2023-05-07T20:34:02;13.60;99.90
11025;DHT22;22890;51.820;8.682;2023-05-07T20:46:18;13.30;99.90
11025;DHT22;22890;51.820;8.682;2023-05-07T20:51:15;13.30;99.90
11025;DHT22;22890;51.820;8.682;2023-05-07T21:01:07;13.20;99.90
11025;DHT22;22890;51.820;8.682;2023-05-07T21:08:29;13.00;99.90
11025;DHT22;22890;51.820;8.682;2023-05-07T21:13:23;12.90;99.90
11025;DHT22;22890;51.820;8.682;2023-05-07T21:18:18;12.90;99.90
11025;DHT22;22890;51.820;8.682;2023-05-07T21:40:28;12.60;99.90
11025;DHT22;22890;51.820;8.682;2023-05-07T21:42:55;12.60;99.90
11025;DHT22;22890;51.820;8.682;2023-05-07T21:57:38;12.40;99.90
11025;DHT22;22890;51.820;8.682;2023-05-07T22:24:44;11.80;99.90
11025;DHT22;22890;51.820;8.682;2023-05-07T23:16:21;11.90;99.90
11025;DHT22;22890;51.820;8.682;2023-05-07T23:21:15;11.90;99.90
11025;DHT22;22890;51.820;8.682;2023-05-07T23:31:06;11.90;99.90
11025;DHT22;22890;51.820;8.682;2023-05-07T23:36:01;11.80;99.90
11025;DHT22;22890;51.820;8.682;2023-05-07T23:55:39;11.80;99.90
